sensor_id;sensor_type;location;lat;lon;timestamp;pressure;altitude;pressure_sealevel;temperature;humidity
62124;BME280;48110;47.532;19.078;2023-01-19T00:02:55;98780.41;;;3.79;100.00
62124;BME280;48110;47.532;19.078;2023-01-19T00:06:06;98785.34;;;3.74;100.00
62124;BME280;48110;47.532;19.078;2023-01-19T00:09:15;98781.25;;;3.79;100.00
62124;BME280;48110;47.532;19.078;2023-01-19T00:12:25;98777.62;;;3.80;100.00
62124;BME280;48110;47.532;19.078;2023-01-19T00:15:35;98782.72;;;3.82;100.00
62124;BME280;48110;47.532;19.078;2023-01-19T00:18:44;98775.34;;;3.77;100.00
62124;BME280;48110;47.532;19.078;2023-01-19T00:21:51;98774.34;;;3.70;100.00
62124;BME280;48110;47.532;19.078;2023-01-19T00:25:02;98784.03;;;3.70;100.00
62124;BME280;48110;47.532;19.078;2023-01-19T00:28:12;98785.19;;;3.67;100.00
62124;BME280;48110;47.532;19.078;2023-01-19T00:31:20;98778.94;;;3.68;100.00
62124;BME280;48110;47.532;19.078;2023-01-19T00:34:28;98779.59;;;3.70;100.00
62124;BME280;48110;47.532;19.078;2023-01-19T00:37:55;98776.16;;;3.62;100.00
62124;BME280;48110;47.532;19.078;2023-01-19T00:41:05;98782.37;;;3.61;100.00
62124;BME280;48110;47.532;19.078;2023-01-19T00:44:15;98784.03;;;3.62;100.00
62124;BME280;48110;47.532;19.078;2023-01-19T00:47:21;98778.28;;;3.58;100.00
62124;BME280;48110;47.532;19.078;2023-01-19T00:50:30;98788.94;;;3.57;100.00
62124;BME280;48110;47.532;19.078;2023-01-19T00:53:37;98780.59;;;3.53;100.00
62124;BME280;48110;47.532;19.078;2023-01-19T00:56:47;98780.25;;;3.48;100.00
62124;BME280;48110;47.532;19.078;2023-01-19T00:59:55;98776.13;;;3.45;100.00
62124;BME280;48110;47.532;19.078;2023-01-19T01:03:05;98769.56;;;3.41;100.00
62124;BME280;48110;47.532;19.078;2023-01-19T01:06:12;98760.88;;;3.41;100.00
62124;BME280;48110;47.532;19.078;2023-01-19T01:09:19;98766.28;;;3.31;100.00
62124;BME280;48110;47.532;19.078;2023-01-19T01:12:30;98764.47;;;3.32;100.00
62124;BME280;48110;47.532;19.078;2023-01-19T01:15:43;98767.28;;;3.38;100.00
62124;BME280;48110;47.532;19.078;2023-01-19T01:18:50;98763.31;;;3.26;100.00
62124;BME280;48110;47.532;19.078;2023-01-19T01:22:02;98759.88;;;3.26;100.00
62124;BME280;48110;47.532;19.078;2023-01-19T01:25:14;98757.88;;;3.20;100.00
62124;BME280;48110;47.532;19.078;2023-01-19T01:28:21;98763.78;;;3.14;100.00
62124;BME280;48110;47.532;19.078;2023-01-19T01:31:29;98767.41;;;3.21;100.00
62124;BME280;48110;47.532;19.078;2023-01-19T01:34:35;98768.06;;;3.23;100.00
62124;BME280;48110;47.532;19.078;2023-01-19T01:37:40;98771.00;;;3.20;100.00
62124;BME280;48110;47.532;19.078;2023-01-19T01:40:49;98755.25;;;3.20;100.00
62124;BME280;48110;47.532;19.078;2023-01-19T01:43:56;98758.84;;;3.11;100.00
62124;BME280;48110;47.532;19.078;2023-01-19T01:47:08;98752.78;;;3.10;100.00
62124;BME280;48110;47.532;19.078;2023-01-19T01:50:24;98760.84;;;3.09;100.00
62124;BME280;48110;47.532;19.078;2023-01-19T01:53:31;98772.44;;;3.06;100.00
62124;BME280;48110;47.532;19.078;2023-01-19T01:56:44;98768.16;;;3.05;100.00
62124;BME280;48110;47.532;19.078;2023-01-19T01:59:54;98762.28;;;3.03;100.00
62124;BME280;48110;47.532;19.078;2023-01-19T02:03:07;98771.44;;;2.99;100.00
62124;BME280;48110;47.532;19.078;2023-01-19T02:06:13;98781.41;;;2.95;100.00
62124;BME280;48110;47.532;19.078;2023-01-19T02:09:18;98793.16;;;2.91;100.00
62124;BME280;48110;47.532;19.078;2023-01-19T02:12:47;98807.91;;;2.92;100.00
62124;BME280;48110;47.532;19.078;2023-01-19T02:16:13;98815.00;;;3.00;100.00
62124;BME280;48110;47.532;19.078;2023-01-19T02:19:24;98790.59;;;2.99;100.00
62124;BME280;48110;47.532;19.078;2023-01-19T02:22:34;98759.13;;;2.91;100.00
62124;BME280;48110;47.532;19.078;2023-01-19T02:25:49;98740.91;;;2.82;100.00
62124;BME280;48110;47.532;19.078;2023-01-19T02:29:02;98744.53;;;2.81;100.00
62124;BME280;48110;47.532;19.078;2023-01-19T02:32:11;98767.81;;;2.92;100.00
62124;BME280;48110;47.532;19.078;2023-01-19T02:35:17;98798.53;;;2.82;100.00
62124;BME280;48110;47.532;19.078;2023-01-19T02:38:28;98810.84;;;2.89;100.00
62124;BME280;48110;47.532;19.078;2023-01-19T02:41:43;98795.63;;;2.85;100.00
62124;BME280;48110;47.532;19.078;2023-01-19T02:44:52;98777.22;;;2.77;100.00
62124;BME280;48110;47.532;19.078;2023-01-19T02:48:00;98769.69;;;2.66;100.00
62124;BME280;48110;47.532;19.078;2023-01-19T02:51:13;98764.00;;;2.78;100.00
62124;BME280;48110;47.532;19.078;2023-01-19T03:08:19;98772.94;;;2.68;100.00
62124;BME280;48110;47.532;19.078;2023-01-19T03:11:32;98784.84;;;2.62;100.00
62124;BME280;48110;47.532;19.078;2023-01-19T03:14:41;98779.97;;;2.67;100.00
62124;BME280;48110;47.532;19.078;2023-01-19T03:17:56;98771.81;;;2.70;100.00
62124;BME280;48110;47.532;19.078;2023-01-19T03:21:06;98789.94;;;2.63;100.00
62124;BME280;48110;47.532;19.078;2023-01-19T03:24:13;98804.69;;;2.65;100.00
62124;BME280;48110;47.532;19.078;2023-01-19T03:27:24;98818.25;;;2.60;100.00
62124;BME280;48110;47.532;19.078;2023-01-19T03:30:38;98814.81;;;2.59;100.00
62124;BME280;48110;47.532;19.078;2023-01-19T03:33:56;98791.28;;;2.68;100.00
62124;BME280;48110;47.532;19.078;2023-01-19T03:37:06;98763.28;;;2.60;100.00
62124;BME280;48110;47.532;19.078;2023-01-19T03:40:18;98762.91;;;2.55;100.00
62124;BME280;48110;47.532;19.078;2023-01-19T03:43:27;98742.09;;;2.45;100.00
62124;BME280;48110;47.532;19.078;2023-01-19T03:46:37;98724.06;;;2.42;100.00
62124;BME280;48110;47.532;19.078;2023-01-19T03:49:48;98723.28;;;2.42;100.00
62124;BME280;48110;47.532;19.078;2023-01-19T03:56:21;98740.94;;;2.48;100.00
62124;BME280;48110;47.532;19.078;2023-01-19T03:59:29;98755.31;;;2.44;100.00
62124;BME280;48110;47.532;19.078;2023-01-19T04:02:38;98754.81;;;2.40;100.00
62124;BME280;48110;47.532;19.078;2023-01-19T04:05:46;98781.13;;;2.39;100.00
62124;BME280;48110;47.532;19.078;2023-01-19T04:08:56;98786.34;;;2.31;100.00
62124;BME280;48110;47.532;19.078;2023-01-19T04:12:06;98782.22;;;2.28;100.00
62124;BME280;48110;47.532;19.078;2023-01-19T04:15:13;98766.16;;;2.23;100.00
62124;BME280;48110;47.532;19.078;2023-01-19T04:18:20;98780.69;;;2.17;100.00
62124;BME280;48110;47.532;19.078;2023-01-19T04:21:29;98781.66;;;2.16;100.00
62124;BME280;48110;47.532;19.078;2023-01-19T04:24:36;98784.19;;;2.26;100.00
62124;BME280;48110;47.532;19.078;2023-01-19T04:27:43;98786.78;;;2.26;100.00
62124;BME280;48110;47.532;19.078;2023-01-19T04:30:49;98775.72;;;2.32;100.00
62124;BME280;48110;47.532;19.078;2023-01-19T04:33:58;98782.37;;;2.27;100.00
62124;BME280;48110;47.532;19.078;2023-01-19T04:37:05;98774.78;;;2.15;100.00
62124;BME280;48110;47.532;19.078;2023-01-19T04:40:12;98771.34;;;2.15;100.00
62124;BME280;48110;47.532;19.078;2023-01-19T04:43:20;98772.50;;;2.12;100.00
62124;BME280;48110;47.532;19.078;2023-01-19T04:46:29;98768.50;;;2.08;100.00
62124;BME280;48110;47.532;19.078;2023-01-19T04:49:38;98753.13;;;2.05;100.00
62124;BME280;48110;47.532;19.078;2023-01-19T04:52:45;98743.66;;;2.04;100.00
62124;BME280;48110;47.532;19.078;2023-01-19T04:55:53;98744.78;;;2.02;100.00
62124;BME280;48110;47.532;19.078;2023-01-19T04:59:04;98749.41;;;2.08;100.00
62124;BME280;48110;47.532;19.078;2023-01-19T05:02:12;98764.41;;;2.06;100.00
62124;BME280;48110;47.532;19.078;2023-01-19T05:05:19;98781.59;;;2.08;100.00
62124;BME280;48110;47.532;19.078;2023-01-19T05:08:28;98789.91;;;2.04;100.00
62124;BME280;48110;47.532;19.078;2023-01-19T05:11:36;98804.75;;;2.03;100.00
62124;BME280;48110;47.532;19.078;2023-01-19T05:14:44;98810.00;;;2.03;100.00
62124;BME280;48110;47.532;19.078;2023-01-19T05:17:53;98792.16;;;1.99;100.00
62124;BME280;48110;47.532;19.078;2023-01-19T05:21:03;98796.31;;;2.09;100.00
62124;BME280;48110;47.532;19.078;2023-01-19T05:24:10;98809.25;;;2.11;100.00
62124;BME280;48110;47.532;19.078;2023-01-19T05:27:15;98824.63;;;2.14;100.00
62124;BME280;48110;47.532;19.078;2023-01-19T05:30:21;98828.91;;;2.15;100.00
62124;BME280;48110;47.532;19.078;2023-01-19T05:33:29;98831.94;;;2.28;100.00
62124;BME280;48110;47.532;19.078;2023-01-19T05:36:36;98831.06;;;2.19;100.00
62124;BME280;48110;47.532;19.078;2023-01-19T05:39:46;98821.88;;;2.15;100.00
62124;BME280;48110;47.532;19.078;2023-01-19T05:42:54;98834.28;;;2.13;100.00
62124;BME280;48110;47.532;19.078;2023-01-19T05:46:01;98830.41;;;2.17;100.00
62124;BME280;48110;47.532;19.078;2023-01-19T05:49:10;98824.19;;;2.18;100.00
62124;BME280;48110;47.532;19.078;2023-01-19T05:52:16;98812.75;;;2.19;100.00
62124;BME280;48110;47.532;19.078;2023-01-19T05:55:20;98798.84;;;2.19;100.00
62124;BME280;48110;47.532;19.078;2023-01-19T05:58:26;98810.72;;;2.13;100.00
62124;BME280;48110;47.532;19.078;2023-01-19T06:01:31;98807.50;;;2.19;100.00
62124;BME280;48110;47.532;19.078;2023-01-19T06:04:41;98782.53;;;2.25;100.00
62124;BME280;48110;47.532;19.078;2023-01-19T06:07:46;98774.66;;;2.17;100.00
62124;BME280;48110;47.532;19.078;2023-01-19T06:10:54;98790.28;;;2.35;100.00
62124;BME280;48110;47.532;19.078;2023-01-19T06:14:01;98781.84;;;2.23;100.00
62124;BME280;48110;47.532;19.078;2023-01-19T06:17:12;98781.56;;;2.26;100.00
62124;BME280;48110;47.532;19.078;2023-01-19T06:20:18;98769.91;;;2.21;100.00
62124;BME280;48110;47.532;19.078;2023-01-19T06:23:26;98783.59;;;2.14;100.00
62124;BME280;48110;47.532;19.078;2023-01-19T06:26:34;98787.66;;;2.09;100.00
62124;BME280;48110;47.532;19.078;2023-01-19T06:29:42;98780.25;;;2.04;100.00
62124;BME280;48110;47.532;19.078;2023-01-19T06:32:48;98753.59;;;2.01;100.00
62124;BME280;48110;47.532;19.078;2023-01-19T06:35:54;98765.59;;;2.11;100.00
62124;BME280;48110;47.532;19.078;2023-01-19T06:39:03;98771.19;;;2.16;100.00
62124;BME280;48110;47.532;19.078;2023-01-19T06:42:13;98787.09;;;2.23;100.00
62124;BME280;48110;47.532;19.078;2023-01-19T06:45:17;98802.50;;;2.26;100.00
62124;BME280;48110;47.532;19.078;2023-01-19T06:48:21;98816.09;;;2.30;100.00
62124;BME280;48110;47.532;19.078;2023-01-19T06:51:26;98818.25;;;2.34;100.00
62124;BME280;48110;47.532;19.078;2023-01-19T06:54:30;98814.03;;;2.41;100.00
62124;BME280;48110;47.532;19.078;2023-01-19T06:57:35;98816.69;;;2.49;100.00
62124;BME280;48110;47.532;19.078;2023-01-19T07:00:40;98794.28;;;2.47;100.00
62124;BME280;48110;47.532;19.078;2023-01-19T07:03:46;98816.25;;;2.54;100.00
62124;BME280;48110;47.532;19.078;2023-01-19T07:06:50;98804.44;;;2.50;100.00
62124;BME280;48110;47.532;19.078;2023-01-19T07:09:53;98806.44;;;2.56;100.00
62124;BME280;48110;47.532;19.078;2023-01-19T07:12:59;98789.94;;;2.63;100.00
62124;BME280;48110;47.532;19.078;2023-01-19T07:16:08;98791.88;;;2.61;100.00
62124;BME280;48110;47.532;19.078;2023-01-19T07:19:14;98793.72;;;2.61;100.00
62124;BME280;48110;47.532;19.078;2023-01-19T07:22:17;98785.53;;;2.64;100.00
62124;BME280;48110;47.532;19.078;2023-01-19T07:25:23;98804.41;;;2.76;100.00
62124;BME280;48110;47.532;19.078;2023-01-19T07:28:28;98823.03;;;2.73;100.00
62124;BME280;48110;47.532;19.078;2023-01-19T07:31:34;98819.94;;;2.69;100.00
62124;BME280;48110;47.532;19.078;2023-01-19T07:34:39;98831.47;;;2.84;100.00
62124;BME280;48110;47.532;19.078;2023-01-19T07:37:42;98832.63;;;2.90;100.00
62124;BME280;48110;47.532;19.078;2023-01-19T07:40:47;98818.88;;;2.88;100.00
62124;BME280;48110;47.532;19.078;2023-01-19T07:43:52;98818.25;;;2.94;100.00
62124;BME280;48110;47.532;19.078;2023-01-19T07:46:56;98822.66;;;2.93;100.00
62124;BME280;48110;47.532;19.078;2023-01-19T07:50:01;98829.69;;;2.93;100.00
62124;BME280;48110;47.532;19.078;2023-01-19T07:53:05;98819.41;;;2.99;100.00
62124;BME280;48110;47.532;19.078;2023-01-19T07:56:09;98838.03;;;2.96;100.00
62124;BME280;48110;47.532;19.078;2023-01-19T07:59:14;98833.00;;;3.03;100.00
62124;BME280;48110;47.532;19.078;2023-01-19T08:02:19;98844.34;;;3.12;100.00
62124;BME280;48110;47.532;19.078;2023-01-19T08:05:23;98832.38;;;3.09;100.00
62124;BME280;48110;47.532;19.078;2023-01-19T08:08:29;98853.03;;;3.12;100.00
62124;BME280;48110;47.532;19.078;2023-01-19T08:11:34;98836.69;;;3.18;100.00
62124;BME280;48110;47.532;19.078;2023-01-19T08:14:39;98841.75;;;3.20;100.00
62124;BME280;48110;47.532;19.078;2023-01-19T08:17:44;98828.00;;;3.18;100.00
62124;BME280;48110;47.532;19.078;2023-01-19T08:20:49;98830.25;;;3.13;100.00
62124;BME280;48110;47.532;19.078;2023-01-19T08:23:56;98818.34;;;3.18;100.00
62124;BME280;48110;47.532;19.078;2023-01-19T08:27:01;98815.72;;;3.18;100.00
62124;BME280;48110;47.532;19.078;2023-01-19T08:30:09;98822.75;;;3.18;100.00
62124;BME280;48110;47.532;19.078;2023-01-19T08:33:12;98819.13;;;3.11;100.00
62124;BME280;48110;47.532;19.078;2023-01-19T08:36:25;98819.44;;;3.08;100.00
62124;BME280;48110;47.532;19.078;2023-01-19T08:39:31;98824.00;;;3.05;100.00
62124;BME280;48110;47.532;19.078;2023-01-19T08:42:39;98834.13;;;3.00;100.00
62124;BME280;48110;47.532;19.078;2023-01-19T08:45:48;98839.72;;;3.05;100.00
62124;BME280;48110;47.532;19.078;2023-01-19T08:48:54;98831.88;;;3.05;100.00
62124;BME280;48110;47.532;19.078;2023-01-19T08:52:00;98834.19;;;3.09;100.00
62124;BME280;48110;47.532;19.078;2023-01-19T08:55:05;98846.81;;;3.13;100.00
62124;BME280;48110;47.532;19.078;2023-01-19T08:58:10;98848.94;;;3.10;100.00
62124;BME280;48110;47.532;19.078;2023-01-19T09:01:15;98847.09;;;3.10;100.00
62124;BME280;48110;47.532;19.078;2023-01-19T09:04:23;98835.03;;;3.17;100.00
62124;BME280;48110;47.532;19.078;2023-01-19T09:07:30;98836.13;;;3.06;100.00
62124;BME280;48110;47.532;19.078;2023-01-19T09:10:38;98832.53;;;3.08;100.00
62124;BME280;48110;47.532;19.078;2023-01-19T09:13:44;98830.75;;;3.08;100.00
62124;BME280;48110;47.532;19.078;2023-01-19T09:16:48;98831.25;;;3.12;100.00
62124;BME280;48110;47.532;19.078;2023-01-19T09:19:54;98828.63;;;3.12;100.00
62124;BME280;48110;47.532;19.078;2023-01-19T09:23:00;98835.00;;;3.09;100.00
62124;BME280;48110;47.532;19.078;2023-01-19T09:26:05;98851.38;;;3.11;100.00
62124;BME280;48110;47.532;19.078;2023-01-19T09:29:09;98840.19;;;3.01;100.00
62124;BME280;48110;47.532;19.078;2023-01-19T09:32:14;98834.66;;;3.04;100.00
62124;BME280;48110;47.532;19.078;2023-01-19T09:35:18;98826.16;;;3.10;100.00
62124;BME280;48110;47.532;19.078;2023-01-19T09:38:22;98830.41;;;3.11;100.00
62124;BME280;48110;47.532;19.078;2023-01-19T09:41:27;98836.63;;;3.10;100.00
62124;BME280;48110;47.532;19.078;2023-01-19T09:44:34;98836.28;;;3.05;100.00
62124;BME280;48110;47.532;19.078;2023-01-19T09:47:40;98832.16;;;2.94;100.00
62124;BME280;48110;47.532;19.078;2023-01-19T09:50:48;98826.75;;;2.96;100.00
62124;BME280;48110;47.532;19.078;2023-01-19T09:57:34;98829.38;;;2.96;100.00
62124;BME280;48110;47.532;19.078;2023-01-19T10:00:37;98838.84;;;2.89;100.00
62124;BME280;48110;47.532;19.078;2023-01-19T10:03:43;98833.06;;;2.77;100.00
62124;BME280;48110;47.532;19.078;2023-01-19T10:06:46;98834.84;;;2.77;100.00
62124;BME280;48110;47.532;19.078;2023-01-19T10:22:27;98846.53;;;2.56;100.00
62124;BME280;48110;47.532;19.078;2023-01-19T10:25:32;98860.22;;;2.50;100.00
62124;BME280;48110;47.532;19.078;2023-01-19T10:28:38;98859.88;;;2.45;100.00
62124;BME280;48110;47.532;19.078;2023-01-19T10:31:43;98857.53;;;2.42;100.00
62124;BME280;48110;47.532;19.078;2023-01-19T10:34:49;98850.16;;;2.38;100.00
62124;BME280;48110;47.532;19.078;2023-01-19T10:37:55;98862.41;;;2.37;100.00
62124;BME280;48110;47.532;19.078;2023-01-19T10:41:04;98863.69;;;2.33;100.00
62124;BME280;48110;47.532;19.078;2023-01-19T10:44:10;98859.28;;;2.34;100.00
62124;BME280;48110;47.532;19.078;2023-01-19T10:47:16;98864.84;;;2.31;100.00
62124;BME280;48110;47.532;19.078;2023-01-19T10:53:28;98870.16;;;2.21;100.00
62124;BME280;48110;47.532;19.078;2023-01-19T10:56:33;98874.72;;;2.19;100.00
62124;BME280;48110;47.532;19.078;2023-01-19T10:59:45;98872.53;;;2.14;100.00
62124;BME280;48110;47.532;19.078;2023-01-19T11:02:49;98875.97;;;2.15;100.00
62124;BME280;48110;47.532;19.078;2023-01-19T11:05:57;98880.09;;;2.17;100.00
62124;BME280;48110;47.532;19.078;2023-01-19T11:09:20;98876.12;;;2.13;100.00
62124;BME280;48110;47.532;19.078;2023-01-19T11:12:27;98885.94;;;2.11;100.00
62124;BME280;48110;47.532;19.078;2023-01-19T11:15:33;98879.56;;;2.14;100.00
62124;BME280;48110;47.532;19.078;2023-01-19T11:18:40;98873.81;;;2.10;100.00
62124;BME280;48110;47.532;19.078;2023-01-19T11:21:44;98874.19;;;2.15;100.00
62124;BME280;48110;47.532;19.078;2023-01-19T11:24:50;98882.81;;;2.08;100.00
62124;BME280;48110;47.532;19.078;2023-01-19T11:27:55;98880.47;;;2.05;100.00
62124;BME280;48110;47.532;19.078;2023-01-19T11:31:01;98871.75;;;1.96;100.00
62124;BME280;48110;47.532;19.078;2023-01-19T11:34:23;98870.91;;;1.96;100.00
62124;BME280;48110;47.532;19.078;2023-01-19T11:37:30;98877.44;;;1.92;100.00
62124;BME280;48110;47.532;19.078;2023-01-19T11:40:38;98879.44;;;1.98;100.00
62124;BME280;48110;47.532;19.078;2023-01-19T11:43:44;98888.03;;;1.90;100.00
62124;BME280;48110;47.532;19.078;2023-01-19T11:46:58;98881.59;;;1.85;100.00
62124;BME280;48110;47.532;19.078;2023-01-19T11:50:05;98886.91;;;1.93;100.00
62124;BME280;48110;47.532;19.078;2023-01-19T11:56:13;98887.94;;;2.00;100.00
62124;BME280;48110;47.532;19.078;2023-01-19T11:59:17;98898.41;;;2.00;100.00
62124;BME280;48110;47.532;19.078;2023-01-19T12:02:25;98892.72;;;2.04;100.00
62124;BME280;48110;47.532;19.078;2023-01-19T12:05:35;98905.91;;;2.12;100.00
62124;BME280;48110;47.532;19.078;2023-01-19T12:08:43;98908.78;;;2.09;100.00
62124;BME280;48110;47.532;19.078;2023-01-19T12:11:49;98913.00;;;2.02;100.00
62124;BME280;48110;47.532;19.078;2023-01-19T12:14:59;98910.37;;;2.02;100.00
62124;BME280;48110;47.532;19.078;2023-01-19T12:18:06;98922.19;;;2.06;100.00
62124;BME280;48110;47.532;19.078;2023-01-19T12:21:18;98926.44;;;2.07;100.00
62124;BME280;48110;47.532;19.078;2023-01-19T12:24:30;98934.22;;;2.17;100.00
62124;BME280;48110;47.532;19.078;2023-01-19T12:27:41;98928.16;;;2.16;100.00
62124;BME280;48110;47.532;19.078;2023-01-19T12:30:47;98936.84;;;2.17;100.00
62124;BME280;48110;47.532;19.078;2023-01-19T12:33:51;98928.81;;;2.18;100.00
62124;BME280;48110;47.532;19.078;2023-01-19T12:36:59;98938.19;;;2.21;100.00
62124;BME280;48110;47.532;19.078;2023-01-19T12:43:28;98939.91;;;2.12;100.00
62124;BME280;48110;47.532;19.078;2023-01-19T12:46:33;98952.00;;;2.13;100.00
62124;BME280;48110;47.532;19.078;2023-01-19T12:52:46;98950.19;;;2.14;100.00
62124;BME280;48110;47.532;19.078;2023-01-19T12:55:59;98970.31;;;2.13;100.00
62124;BME280;48110;47.532;19.078;2023-01-19T12:59:13;98974.56;;;2.14;100.00
62124;BME280;48110;47.532;19.078;2023-01-19T13:09:23;98971.28;;;2.12;100.00
62124;BME280;48110;47.532;19.078;2023-01-19T13:15:26;98989.38;;;2.24;100.00
62124;BME280;48110;47.532;19.078;2023-01-19T13:18:40;98999.09;;;2.31;100.00
62124;BME280;48110;47.532;19.078;2023-01-19T13:21:45;99014.19;;;2.37;100.00
62124;BME280;48110;47.532;19.078;2023-01-19T13:25:05;99024.66;;;2.37;100.00
62124;BME280;48110;47.532;19.078;2023-01-19T13:28:11;99030.81;;;2.46;100.00
62124;BME280;48110;47.532;19.078;2023-01-19T13:31:17;99038.13;;;2.42;100.00
62124;BME280;48110;47.532;19.078;2023-01-19T13:34:23;99030.28;;;2.42;100.00
62124;BME280;48110;47.532;19.078;2023-01-19T13:37:30;99043.53;;;2.41;100.00
62124;BME280;48110;47.532;19.078;2023-01-19T13:40:36;99051.81;;;2.36;100.00
62124;BME280;48110;47.532;19.078;2023-01-19T13:43:40;99047.25;;;2.38;100.00
62124;BME280;48110;47.532;19.078;2023-01-19T13:46:45;99052.88;;;2.43;100.00
62124;BME280;48110;47.532;19.078;2023-01-19T13:49:56;99063.63;;;2.40;100.00
62124;BME280;48110;47.532;19.078;2023-01-19T13:53:01;99072.16;;;2.42;100.00
62124;BME280;48110;47.532;19.078;2023-01-19T13:56:15;99077.84;;;2.38;100.00
62124;BME280;48110;47.532;19.078;2023-01-19T13:59:19;99075.81;;;2.32;100.00
62124;BME280;48110;47.532;19.078;2023-01-19T14:02:23;99087.25;;;2.31;100.00
62124;BME280;48110;47.532;19.078;2023-01-19T14:05:30;99086.03;;;2.25;100.00
62124;BME280;48110;47.532;19.078;2023-01-19T14:08:34;99100.09;;;2.24;100.00
62124;BME280;48110;47.532;19.078;2023-01-19T14:11:39;99097.97;;;2.10;100.00
62124;BME280;48110;47.532;19.078;2023-01-19T14:14:45;99103.75;;;2.04;100.00
62124;BME280;48110;47.532;19.078;2023-01-19T14:18:06;99093.31;;;2.04;100.00
62124;BME280;48110;47.532;19.078;2023-01-19T14:21:11;99086.50;;;1.93;100.00
62124;BME280;48110;47.532;19.078;2023-01-19T14:24:18;99076.16;;;1.92;100.00
62124;BME280;48110;47.532;19.078;2023-01-19T14:27:23;99068.47;;;1.90;100.00
62124;BME280;48110;47.532;19.078;2023-01-19T14:30:28;99070.69;;;1.85;100.00
62124;BME280;48110;47.532;19.078;2023-01-19T14:36:37;99088.50;;;1.72;100.00
62124;BME280;48110;47.532;19.078;2023-01-19T14:39:47;99097.31;;;1.71;100.00
62124;BME280;48110;47.532;19.078;2023-01-19T14:42:53;99103.50;;;1.70;100.00
62124;BME280;48110;47.532;19.078;2023-01-19T14:45:58;99095.81;;;1.68;100.00
62124;BME280;48110;47.532;19.078;2023-01-19T14:49:03;99105.56;;;1.66;100.00
62124;BME280;48110;47.532;19.078;2023-01-19T14:52:19;99117.97;;;1.64;100.00
62124;BME280;48110;47.532;19.078;2023-01-19T14:55:27;99124.16;;;1.63;100.00
62124;BME280;48110;47.532;19.078;2023-01-19T14:58:34;99123.03;;;1.66;100.00
62124;BME280;48110;47.532;19.078;2023-01-19T15:01:45;99130.34;;;1.62;100.00
62124;BME280;48110;47.532;19.078;2023-01-19T15:04:50;99144.94;;;1.55;100.00
62124;BME280;48110;47.532;19.078;2023-01-19T15:08:00;99159.12;;;1.53;100.00
62124;BME280;48110;47.532;19.078;2023-01-19T15:11:09;99170.81;;;1.49;100.00
62124;BME280;48110;47.532;19.078;2023-01-19T15:14:14;99185.56;;;1.50;100.00
62124;BME280;48110;47.532;19.078;2023-01-19T15:17:19;99194.88;;;1.52;100.00
62124;BME280;48110;47.532;19.078;2023-01-19T15:20:32;99199.03;;;1.55;100.00
62124;BME280;48110;47.532;19.078;2023-01-19T15:23:37;99189.66;;;1.52;100.00
62124;BME280;48110;47.532;19.078;2023-01-19T15:26:42;99193.37;;;1.59;100.00
62124;BME280;48110;47.532;19.078;2023-01-19T15:29:47;99185.13;;;1.64;100.00
62124;BME280;48110;47.532;19.078;2023-01-19T15:32:53;99179.06;;;1.63;100.00
62124;BME280;48110;47.532;19.078;2023-01-19T15:35:58;99185.25;;;1.53;100.00
62124;BME280;48110;47.532;19.078;2023-01-19T15:39:04;99196.25;;;1.56;100.00
62124;BME280;48110;47.532;19.078;2023-01-19T15:42:13;99200.22;;;1.60;100.00
62124;BME280;48110;47.532;19.078;2023-01-19T15:45:35;99214.81;;;1.63;100.00
62124;BME280;48110;47.532;19.078;2023-01-19T15:48:40;99215.09;;;1.60;100.00
62124;BME280;48110;47.532;19.078;2023-01-19T15:51:49;99200.94;;;1.62;100.00
62124;BME280;48110;47.532;19.078;2023-01-19T15:54:54;99209.59;;;1.53;100.00
62124;BME280;48110;47.532;19.078;2023-01-19T15:58:03;99219.22;;;1.62;100.00
62124;BME280;48110;47.532;19.078;2023-01-19T16:01:15;99228.31;;;1.58;100.00
62124;BME280;48110;47.532;19.078;2023-01-19T16:04:20;99233.38;;;1.60;100.00
62124;BME280;48110;47.532;19.078;2023-01-19T16:07:27;99244.00;;;1.68;100.00
62124;BME280;48110;47.532;19.078;2023-01-19T16:10:34;99259.53;;;1.69;100.00
62124;BME280;48110;47.532;19.078;2023-01-19T16:13:44;99261.19;;;1.70;100.00
62124;BME280;48110;47.532;19.078;2023-01-19T16:16:51;99260.22;;;1.71;100.00
62124;BME280;48110;47.532;19.078;2023-01-19T16:19:57;99261.75;;;1.74;100.00
62124;BME280;48110;47.532;19.078;2023-01-19T16:23:06;99283.75;;;1.71;100.00
62124;BME280;48110;47.532;19.078;2023-01-19T16:26:24;99298.75;;;1.79;100.00
62124;BME280;48110;47.532;19.078;2023-01-19T16:29:32;99296.16;;;1.79;100.00
62124;BME280;48110;47.532;19.078;2023-01-19T16:32:39;99290.34;;;1.75;100.00
62124;BME280;48110;47.532;19.078;2023-01-19T16:35:46;99301.34;;;1.69;100.00
62124;BME280;48110;47.532;19.078;2023-01-19T16:39:05;99308.94;;;1.72;100.00
62124;BME280;48110;47.532;19.078;2023-01-19T16:42:11;99325.56;;;1.71;100.00
62124;BME280;48110;47.532;19.078;2023-01-19T16:45:17;99316.78;;;1.72;100.00
62124;BME280;48110;47.532;19.078;2023-01-19T16:48:22;99349.94;;;1.72;100.00
62124;BME280;48110;47.532;19.078;2023-01-19T16:51:29;99356.94;;;1.71;100.00
62124;BME280;48110;47.532;19.078;2023-01-19T16:54:39;99362.72;;;1.75;100.00
62124;BME280;48110;47.532;19.078;2023-01-19T16:57:47;99364.25;;;1.78;100.00
62124;BME280;48110;47.532;19.078;2023-01-19T17:00:55;99366.72;;;1.69;100.00
62124;BME280;48110;47.532;19.078;2023-01-19T17:04:01;99372.22;;;1.76;100.00
62124;BME280;48110;47.532;19.078;2023-01-19T17:07:09;99367.69;;;1.78;100.00
62124;BME280;48110;47.532;19.078;2023-01-19T17:10:15;99358.72;;;1.71;100.00
62124;BME280;48110;47.532;19.078;2023-01-19T17:13:20;99390.81;;;1.73;100.00
62124;BME280;48110;47.532;19.078;2023-01-19T17:16:27;99382.25;;;1.71;100.00
62124;BME280;48110;47.532;19.078;2023-01-19T17:19:34;99394.91;;;1.66;100.00
62124;BME280;48110;47.532;19.078;2023-01-19T17:22:41;99399.75;;;1.70;100.00